createdAt,value
2022-10-15T00:01:30.294Z,9.35
2022-10-15T00:03:58.819Z,9.31
2022-10-15T00:06:26.847Z,9.27
2022-10-15T00:08:54.937Z,9.28
2022-10-15T00:11:26.603Z,9.29
2022-10-15T00:13:55.787Z,9.27
2022-10-15T00:16:25.911Z,9.25
2022-10-15T00:18:56.739Z,9.23
2022-10-15T00:21:24.727Z,9.22
2022-10-15T00:23:53.073Z,9.16
2022-10-15T00:26:22.624Z,9.14
2022-10-15T00:28:54.436Z,9.13
2022-10-15T00:31:24.422Z,9.05
2022-10-15T00:33:53.777Z,8.83
2022-10-15T00:36:24.154Z,8.96
2022-10-15T00:38:52.994Z,8.93
2022-10-15T00:41:25.352Z,8.95
2022-10-15T00:43:57.160Z,8.94
2022-10-15T00:46:28.085Z,8.96
2022-10-15T00:48:59.411Z,8.96
2022-10-15T00:51:32.891Z,8.91
2022-10-15T00:54:02.001Z,8.87
2022-10-15T00:56:34.478Z,8.84
2022-10-15T00:59:06.516Z,8.77
2022-10-15T01:01:34.620Z,8.53
2022-10-15T01:04:04.056Z,8.48
2022-10-15T01:06:31.981Z,8.35
2022-10-15T01:09:01.271Z,8.43
2022-10-15T01:11:43.632Z,8.52
2022-10-15T01:14:29.726Z,8.56
2022-10-15T01:17:05.230Z,8.56
2022-10-15T01:20:07.581Z,8.57
2022-10-15T01:22:49.051Z,8.59
2022-10-15T01:25:30.941Z,8.53
2022-10-15T01:28:06.025Z,8.44
2022-10-15T01:30:40.162Z,8.42
2022-10-15T01:33:23.265Z,8.47
2022-10-15T01:35:54.689Z,8.41
2022-10-15T01:38:32.561Z,8.23
2022-10-15T01:41:05.166Z,8.05
2022-10-15T01:43:41.266Z,8.06
2022-10-15T01:46:15.717Z,8.06
2022-10-15T01:48:44.603Z,8.16
2022-10-15T01:51:15.276Z,8.17
2022-10-15T01:53:45.284Z,8.19
2022-10-15T01:56:18.837Z,8.16
2022-10-15T01:58:50.559Z,8.12
2022-10-15T02:01:20.011Z,8.13
2022-10-15T02:03:49.566Z,8.19
2022-10-15T02:06:23.474Z,8.18
2022-10-15T02:09:04.494Z,8.15
2022-10-15T02:11:38.243Z,8.19
2022-10-15T02:14:15.316Z,8.23
2022-10-15T02:16:49.102Z,8.12
2022-10-15T02:19:22.907Z,8.08
2022-10-15T02:21:56.396Z,8.00
2022-10-15T02:24:27.619Z,7.89
2022-10-15T02:26:58.804Z,7.86
2022-10-15T02:29:32.982Z,7.83
2022-10-15T02:32:03.478Z,7.83
2022-10-15T02:34:34.114Z,7.76
2022-10-15T02:37:04.879Z,7.73
2022-10-15T02:39:33.088Z,7.73
2022-10-15T02:42:02.297Z,7.73
2022-10-15T02:44:30.230Z,7.69
2022-10-15T02:47:00.314Z,7.66
2022-10-15T02:49:29.629Z,7.55
2022-10-15T02:51:57.566Z,7.54
2022-10-15T02:54:25.534Z,7.51
2022-10-15T02:56:53.450Z,7.48
2022-10-15T02:59:22.081Z,7.48
2022-10-15T03:01:50.254Z,7.55
2022-10-15T03:04:18.258Z,7.53
2022-10-15T03:06:47.839Z,7.18
2022-10-15T03:09:15.882Z,7.48
2022-10-15T03:11:43.899Z,7.46
2022-10-15T03:14:12.110Z,7.42
2022-10-15T03:16:40.131Z,7.35
2022-10-15T03:19:08.382Z,7.31
2022-10-15T03:21:36.341Z,7.27
2022-10-15T03:24:06.368Z,7.20
2022-10-15T03:26:34.449Z,7.19
2022-10-15T03:29:02.391Z,7.19
2022-10-15T03:31:30.309Z,7.17
2022-10-15T03:33:58.229Z,7.16
2022-10-15T03:36:26.311Z,7.19
2022-10-15T03:38:54.356Z,7.19
2022-10-15T03:41:23.721Z,7.20
2022-10-15T03:43:51.638Z,7.17
2022-10-15T03:46:19.637Z,7.11
2022-10-15T03:48:50.509Z,7.08
2022-10-15T03:51:22.731Z,6.93
2022-10-15T03:53:53.465Z,6.91
2022-10-15T03:56:23.193Z,6.84
2022-10-15T03:58:51.513Z,6.87
2022-10-15T04:01:20.260Z,6.83
2022-10-15T04:03:48.665Z,6.90
2022-10-15T04:06:16.570Z,6.88
2022-10-15T04:08:44.803Z,6.86
2022-10-15T04:11:12.822Z,6.92
2022-10-15T04:13:42.166Z,6.90
2022-10-15T04:16:10.181Z,6.92
2022-10-15T04:18:38.169Z,6.89
2022-10-15T04:21:06.166Z,6.83
2022-10-15T04:23:34.107Z,6.54
2022-10-15T04:26:02.796Z,6.52
2022-10-15T04:28:30.856Z,6.59
2022-10-15T04:31:00.693Z,6.64
2022-10-15T04:33:29.385Z,6.68
2022-10-15T04:36:02.293Z,6.67
2022-10-15T04:38:30.845Z,6.67
2022-10-15T04:41:03.442Z,6.61
2022-10-15T04:43:31.817Z,6.69
2022-10-15T04:46:02.785Z,6.72
2022-10-15T04:48:32.032Z,6.74
2022-10-15T04:51:05.133Z,6.71
2022-10-15T04:53:33.880Z,6.68
2022-10-15T04:56:03.613Z,6.67
2022-10-15T04:58:33.093Z,6.66
2022-10-15T05:01:03.161Z,6.67
2022-10-15T05:03:31.160Z,6.56
2022-10-15T05:06:02.772Z,6.70
2022-10-15T05:08:31.085Z,6.83
2022-10-15T05:11:02.278Z,6.77
2022-10-15T05:13:30.920Z,6.88
2022-10-15T05:15:59.583Z,6.92
2022-10-15T05:18:29.291Z,7.08
2022-10-15T05:20:57.452Z,7.15
2022-10-15T05:23:26.950Z,7.24
2022-10-15T05:25:55.063Z,7.16
2022-10-15T05:28:23.094Z,7.22
2022-10-15T05:30:51.105Z,7.39
2022-10-15T05:33:19.090Z,7.26
2022-10-15T05:35:48.631Z,7.42
2022-10-15T05:38:16.670Z,7.51
2022-10-15T05:40:49.535Z,7.46
2022-10-15T05:43:17.675Z,7.61
2022-10-15T05:45:45.647Z,7.72
2022-10-15T05:48:13.704Z,7.83
2022-10-15T05:50:41.714Z,7.72
2022-10-15T05:53:11.283Z,7.92
2022-10-15T05:55:39.525Z,7.93
2022-10-15T05:58:07.512Z,7.95
2022-10-15T06:00:36.966Z,8.02
2022-10-15T06:03:05.100Z,7.72
2022-10-15T06:05:33.542Z,7.94
2022-10-15T06:08:01.619Z,7.96
2022-10-15T06:10:31.078Z,8.00
2022-10-15T06:12:59.011Z,7.97
2022-10-15T06:15:27.185Z,8.21
2022-10-15T06:17:55.350Z,8.39
2022-10-15T06:20:23.644Z,8.56
2022-10-15T06:22:51.630Z,8.64
2022-10-15T06:25:19.642Z,8.76
2022-10-15T06:27:49.051Z,8.87
2022-10-15T06:30:17.203Z,8.97
2022-10-15T06:32:48.936Z,8.93
2022-10-15T06:35:17.106Z,9.09
2022-10-15T06:37:45.382Z,9.18
2022-10-15T06:40:14.262Z,9.06
2022-10-15T06:42:43.088Z,9.16
2022-10-15T06:45:14.876Z,9.04
2022-10-15T06:47:44.859Z,9.26
2022-10-15T06:50:13.014Z,9.74
2022-10-15T06:52:41.030Z,10.23
2022-10-15T06:55:09.709Z,10.33
2022-10-15T06:57:37.767Z,10.20
2022-10-15T07:00:06.518Z,10.35
2022-10-15T07:02:37.828Z,10.52
2022-10-15T07:05:06.588Z,10.42
2022-10-15T07:07:34.525Z,10.34
2022-10-15T07:10:02.528Z,10.38
2022-10-15T07:12:30.490Z,10.37
2022-10-15T07:14:58.482Z,10.66
2022-10-15T07:17:26.509Z,10.84
2022-10-15T07:19:55.882Z,10.84
2022-10-15T07:22:24.230Z,11.09
2022-10-15T07:24:52.417Z,11.43
2022-10-15T07:27:20.898Z,11.57
2022-10-15T07:29:48.997Z,11.36
2022-10-15T07:32:16.955Z,11.49
2022-10-15T07:34:44.939Z,11.35
2022-10-15T07:37:14.840Z,11.60
2022-10-15T07:39:43.432Z,11.92
2022-10-15T07:44:44.541Z,12.07
2022-10-15T07:47:12.549Z,12.05
2022-10-15T07:49:40.785Z,12.30
2022-10-15T07:52:09.641Z,12.37
2022-10-15T07:54:39.329Z,12.65
2022-10-15T07:57:08.424Z,12.94
2022-10-15T07:59:36.645Z,12.77
2022-10-15T08:02:04.593Z,12.41
2022-10-15T08:04:34.797Z,12.45
2022-10-15T08:07:05.732Z,12.07
2022-10-15T08:09:36.316Z,11.96
2022-10-15T08:12:07.155Z,11.91
2022-10-15T08:14:35.789Z,12.12
2022-10-15T08:17:04.733Z,12.12
2022-10-15T08:19:32.962Z,12.30
2022-10-15T08:22:01.266Z,12.58
2022-10-15T08:24:30.357Z,12.73
2022-10-15T08:26:58.773Z,13.12
2022-10-15T08:29:28.250Z,13.40
2022-10-15T08:31:56.177Z,13.63
2022-10-15T08:34:24.579Z,13.75
2022-10-15T08:36:52.714Z,13.85
2022-10-15T08:39:20.800Z,13.69
2022-10-15T08:41:52.554Z,13.77
2022-10-15T08:44:27.750Z,14.18
2022-10-15T08:47:02.899Z,14.36
2022-10-15T08:49:42.832Z,14.33
2022-10-15T08:52:21.487Z,14.28
2022-10-15T08:54:49.738Z,13.66
2022-10-15T08:57:39.631Z,13.51
2022-10-15T09:00:17.297Z,13.32
2022-10-15T09:02:53.689Z,13.61
2022-10-15T09:05:29.923Z,13.60
2022-10-15T09:08:04.171Z,13.67
2022-10-15T09:10:40.857Z,13.67
2022-10-15T09:13:16.221Z,13.68
2022-10-15T09:15:50.830Z,13.88
2022-10-15T09:18:24.760Z,13.87
2022-10-15T09:20:54.615Z,14.11
2022-10-15T09:23:25.188Z,14.09
2022-10-15T09:26:00.431Z,14.17
2022-10-15T09:28:35.763Z,14.24
2022-10-15T09:31:04.022Z,14.43
2022-10-15T09:33:40.207Z,14.66
2022-10-15T09:36:27.602Z,14.66
2022-10-15T09:39:06.260Z,14.84
2022-10-15T09:41:44.558Z,14.79
2022-10-15T09:44:17.402Z,14.95
2022-10-15T09:46:49.629Z,14.77
2022-10-15T09:49:25.222Z,14.82
2022-10-15T09:52:01.579Z,14.71
2022-10-15T09:54:39.951Z,14.95
2022-10-15T09:57:10.921Z,15.00
2022-10-15T09:59:38.994Z,15.12
2022-10-15T10:02:20.649Z,15.06
2022-10-15T10:04:50.345Z,15.46
2022-10-15T10:07:33.623Z,15.74
2022-10-15T10:10:05.224Z,15.82
2022-10-15T10:12:36.599Z,15.90
2022-10-15T10:15:09.898Z,15.99
2022-10-15T10:17:38.340Z,16.02
2022-10-15T10:20:19.929Z,16.05
2022-10-15T10:22:51.559Z,16.07
2022-10-15T10:25:40.262Z,16.14
2022-10-15T10:28:18.425Z,16.34
2022-10-15T10:30:55.137Z,16.22
2022-10-15T10:33:28.130Z,16.19
2022-10-15T10:35:58.371Z,16.22
2022-10-15T10:38:30.233Z,16.29
2022-10-15T10:41:05.642Z,16.43
2022-10-15T10:43:39.138Z,16.77
2022-10-15T10:46:19.200Z,16.65
2022-10-15T10:48:49.042Z,16.80
2022-10-15T10:51:21.048Z,16.53
2022-10-15T10:53:55.533Z,16.72
2022-10-15T10:56:25.810Z,16.76
2022-10-15T10:58:59.205Z,16.90
2022-10-15T11:01:28.211Z,16.87
2022-10-15T11:03:56.407Z,17.18
2022-10-15T11:06:46.101Z,17.17
2022-10-15T11:09:31.268Z,17.09
2022-10-15T11:12:13.487Z,17.11
2022-10-15T11:14:49.589Z,16.66
2022-10-15T11:17:27.286Z,16.84
2022-10-15T11:22:57.926Z,16.72
2022-10-15T11:25:35.948Z,16.79
2022-10-15T11:28:30.312Z,16.83
2022-10-15T11:31:03.888Z,16.84
2022-10-15T11:33:52.705Z,16.96
2022-10-15T11:36:38.019Z,17.23
2022-10-15T11:39:25.612Z,17.04
2022-10-15T11:42:01.061Z,17.13
2022-10-15T11:44:50.619Z,16.91
2022-10-15T11:47:34.595Z,16.95
2022-10-15T11:50:13.307Z,17.14
2022-10-15T11:52:53.857Z,17.31
2022-10-15T11:55:27.563Z,17.32
2022-10-15T11:58:01.214Z,17.04
2022-10-15T12:00:34.889Z,17.05
2022-10-15T12:03:08.989Z,16.92
2022-10-15T12:05:41.657Z,17.05
2022-10-15T12:08:14.017Z,17.12
2022-10-15T12:11:01.158Z,16.63
2022-10-15T12:13:35.830Z,16.76
2022-10-15T12:16:15.835Z,17.14
2022-10-15T12:18:50.614Z,16.99
2022-10-15T12:21:35.086Z,17.18
2022-10-15T12:24:03.730Z,17.42
2022-10-15T12:26:34.497Z,17.45
2022-10-15T12:29:05.346Z,17.61
2022-10-15T12:31:48.490Z,17.53
2022-10-15T12:34:33.789Z,17.36
2022-10-15T12:37:04.575Z,17.42
2022-10-15T12:39:48.037Z,17.41
2022-10-15T12:42:27.588Z,17.28
2022-10-15T12:44:57.815Z,17.38
2022-10-15T12:47:50.882Z,17.19
2022-10-15T12:50:20.987Z,17.12
2022-10-15T12:53:00.428Z,16.92
2022-10-15T12:55:32.175Z,16.90
2022-10-15T12:58:05.082Z,16.91
2022-10-15T13:00:44.192Z,16.97
2022-10-15T13:03:34.026Z,16.96
2022-10-15T13:06:23.802Z,16.88
2022-10-15T13:08:55.291Z,16.91
2022-10-15T13:11:26.127Z,16.86
2022-10-15T13:14:00.611Z,17.02
2022-10-15T13:16:29.395Z,17.06
2022-10-15T13:18:59.200Z,17.22
2022-10-15T13:21:52.485Z,17.09
2022-10-15T13:24:22.674Z,16.83
2022-10-15T13:26:51.621Z,17.11
2022-10-15T13:29:23.963Z,17.07
2022-10-15T13:31:53.209Z,17.07
2022-10-15T13:34:28.728Z,17.19
2022-10-15T13:36:58.897Z,17.16
2022-10-15T13:42:11.022Z,16.92
2022-10-15T13:44:40.866Z,17.03
2022-10-15T13:47:27.125Z,17.11
2022-10-15T13:50:13.654Z,17.08
2022-10-15T13:52:43.776Z,16.99
2022-10-15T13:55:23.633Z,16.97
2022-10-15T13:57:57.180Z,16.91
2022-10-15T14:00:29.863Z,16.95
2022-10-15T14:03:20.745Z,17.00
2022-10-15T14:05:50.564Z,17.03
2022-10-15T14:08:21.544Z,17.01
2022-10-15T14:10:51.080Z,16.93
2022-10-15T14:13:19.662Z,16.83
2022-10-15T14:15:54.992Z,16.66
2022-10-15T14:18:32.843Z,16.69
2022-10-15T14:21:01.786Z,16.62
2022-10-15T14:23:30.131Z,16.61
2022-10-15T14:26:01.809Z,16.71
2022-10-15T14:28:32.152Z,16.76
2022-10-15T14:31:02.905Z,16.64
2022-10-15T14:33:46.698Z,16.52
2022-10-15T14:36:24.790Z,16.63
2022-10-15T14:38:54.066Z,16.66
2022-10-15T14:41:30.760Z,16.68
2022-10-15T14:44:07.254Z,16.68
2022-10-15T14:46:41.706Z,16.63
2022-10-15T14:49:23.526Z,16.43
2022-10-15T14:52:02.431Z,16.41
2022-10-15T14:54:36.935Z,16.36
2022-10-15T14:57:06.227Z,16.40
2022-10-15T14:59:38.589Z,16.09
2022-10-15T15:02:15.143Z,16.20
2022-10-15T15:04:45.523Z,16.39
2022-10-15T15:07:16.498Z,16.28
2022-10-15T15:09:44.715Z,16.18
2022-10-15T15:12:21.712Z,16.03
2022-10-15T15:14:52.678Z,15.73
2022-10-15T15:17:24.166Z,15.57
2022-10-15T15:19:54.617Z,15.82
2022-10-15T15:22:28.361Z,15.99
2022-10-15T15:24:56.692Z,16.01
2022-10-15T15:27:27.555Z,16.09
2022-10-15T15:29:56.662Z,16.11
2022-10-15T15:32:26.707Z,15.96
2022-10-15T15:34:56.326Z,15.96
2022-10-15T15:37:26.260Z,15.86
2022-10-15T15:39:55.618Z,15.87
2022-10-15T15:42:25.435Z,15.84
2022-10-15T15:44:54.118Z,15.79
2022-10-15T15:47:22.150Z,15.68
2022-10-15T15:49:51.747Z,14.71
2022-10-15T15:52:19.757Z,14.23
2022-10-15T15:54:48.062Z,14.61
2022-10-15T15:57:16.775Z,14.81
2022-10-15T15:59:44.874Z,14.86
2022-10-15T16:02:13.771Z,14.81
2022-10-15T16:04:41.806Z,14.79
2022-10-15T16:07:13.430Z,14.75
2022-10-15T16:09:41.936Z,14.65
2022-10-15T16:12:09.912Z,14.54
2022-10-15T16:14:37.997Z,14.26
2022-10-15T16:17:06.045Z,13.42
2022-10-15T16:19:34.030Z,12.91
2022-10-15T16:22:02.326Z,12.87
2022-10-15T16:24:31.906Z,12.90
2022-10-15T16:26:59.975Z,13.15
2022-10-15T16:29:28.085Z,13.22
2022-10-15T16:31:56.367Z,13.31
2022-10-15T16:34:25.142Z,13.28
2022-10-15T16:36:53.244Z,13.28
2022-10-15T16:39:21.414Z,13.10
2022-10-15T16:41:51.322Z,11.76
2022-10-15T16:44:19.324Z,11.32
2022-10-15T16:46:47.588Z,11.19
2022-10-15T16:49:15.688Z,10.85
2022-10-15T16:51:43.958Z,10.75
2022-10-15T16:54:15.566Z,11.30
2022-10-15T16:56:45.383Z,11.60
2022-10-15T16:59:17.358Z,11.75
2022-10-15T17:01:45.392Z,11.82
2022-10-15T17:04:13.447Z,11.87
2022-10-15T17:06:41.574Z,11.76
2022-10-15T17:09:10.051Z,11.79
2022-10-15T17:11:39.553Z,11.72
2022-10-15T17:14:09.402Z,11.67
2022-10-15T17:16:41.059Z,11.68
2022-10-15T17:19:10.534Z,11.70
2022-10-15T17:21:42.367Z,11.71
2022-10-15T17:24:13.517Z,11.69
2022-10-15T17:26:43.239Z,11.63
2022-10-15T17:29:13.100Z,11.59
2022-10-15T17:31:42.991Z,11.52
2022-10-15T17:34:12.745Z,11.46
2022-10-15T17:36:45.658Z,11.36
2022-10-15T17:39:17.451Z,11.33
2022-10-15T17:41:45.990Z,11.28
2022-10-15T17:44:14.212Z,11.19
2022-10-15T17:46:43.983Z,11.09
2022-10-15T17:49:14.019Z,11.09
2022-10-15T17:51:42.102Z,10.99
2022-10-15T17:54:10.108Z,11.02
2022-10-15T17:56:40.021Z,11.01
2022-10-15T17:59:10.308Z,10.91
2022-10-15T18:01:57.345Z,10.64
2022-10-15T18:04:28.273Z,10.70
2022-10-15T18:06:56.354Z,10.70
2022-10-15T18:09:24.455Z,10.63
2022-10-15T18:11:52.585Z,10.54
2022-10-15T18:16:49.209Z,10.54
2022-10-15T18:19:17.286Z,10.49
2022-10-15T18:21:49.533Z,10.45
2022-10-15T18:24:21.587Z,10.42
2022-10-15T18:26:50.299Z,10.41
2022-10-15T18:29:18.999Z,10.33
2022-10-15T18:31:51.147Z,10.40
2022-10-15T18:34:21.734Z,10.38
2022-10-15T18:36:51.205Z,10.38
2022-10-15T18:39:19.566Z,10.41
2022-10-15T18:41:47.839Z,10.41
2022-10-15T18:44:17.666Z,10.41
2022-10-15T18:46:46.073Z,10.36
2022-10-15T18:49:16.212Z,10.30
2022-10-15T18:51:46.210Z,10.25
2022-10-15T18:54:15.706Z,9.96
2022-10-15T18:56:43.769Z,9.81
2022-10-15T18:59:11.833Z,9.68
2022-10-15T19:01:43.290Z,9.72
2022-10-15T19:04:13.339Z,9.64
2022-10-15T19:06:43.277Z,9.60
2022-10-15T19:09:13.228Z,9.61
2022-10-15T19:11:44.940Z,9.73
2022-10-15T19:14:13.698Z,9.82
2022-10-15T19:16:41.791Z,9.82
2022-10-15T19:19:10.218Z,9.80
2022-10-15T19:21:38.526Z,9.80
2022-10-15T19:24:07.052Z,9.72
2022-10-15T19:26:35.614Z,9.67
2022-10-15T19:29:05.623Z,9.55
2022-10-15T19:31:35.811Z,9.56
2022-10-15T19:34:04.588Z,9.58
2022-10-15T19:36:35.567Z,9.59
2022-10-15T19:39:06.022Z,9.59
2022-10-15T19:41:36.602Z,9.61
2022-10-15T19:44:08.367Z,9.58
2022-10-15T19:46:36.634Z,9.60
2022-10-15T19:49:05.406Z,9.40
2022-10-15T19:51:33.485Z,9.34
2022-10-15T19:54:01.470Z,9.18
2022-10-15T19:56:29.479Z,9.31
2022-10-15T19:58:58.058Z,9.25
2022-10-15T20:01:28.714Z,9.29
2022-10-15T20:04:01.624Z,9.30
2022-10-15T20:06:33.314Z,9.34
2022-10-15T20:09:02.330Z,9.32
2022-10-15T20:11:30.550Z,9.34
2022-10-15T20:13:59.692Z,9.27
2022-10-15T20:16:32.734Z,9.28
2022-10-15T20:19:02.530Z,9.30
2022-10-15T20:21:30.736Z,9.26
2022-10-15T20:23:58.930Z,9.27
2022-10-15T20:26:26.938Z,9.31
2022-10-15T20:28:54.922Z,9.23
2022-10-15T20:31:28.542Z,9.24
2022-10-15T20:33:57.930Z,9.16
2022-10-15T20:36:27.402Z,9.17
2022-10-15T20:38:55.789Z,9.12
2022-10-15T20:41:23.802Z,8.94
2022-10-15T20:43:55.466Z,8.90
2022-10-15T20:46:28.257Z,8.82
2022-10-15T20:49:02.258Z,8.76
2022-10-15T20:51:34.598Z,8.72
2022-10-15T20:54:03.503Z,8.94
2022-10-15T20:56:31.740Z,9.06
2022-10-15T20:58:59.892Z,9.18
2022-10-15T21:01:28.177Z,9.18
2022-10-15T21:03:57.619Z,9.04
2022-10-15T21:06:25.706Z,9.05
2022-10-15T21:08:53.674Z,8.85
2022-10-15T21:11:21.757Z,8.85
2022-10-15T21:13:49.706Z,8.87
2022-10-15T21:16:18.018Z,8.91
2022-10-15T21:18:46.118Z,8.90
2022-10-15T21:21:16.328Z,9.10
2022-10-15T21:23:44.343Z,9.20
2022-10-15T21:26:14.298Z,9.34
2022-10-15T21:28:42.832Z,9.44
2022-10-15T21:31:13.141Z,9.54
2022-10-15T21:33:41.818Z,9.36
2022-10-15T21:36:16.186Z,9.44
2022-10-15T21:38:44.138Z,9.40
2022-10-15T21:41:12.185Z,9.43
2022-10-15T21:43:40.515Z,9.49
2022-10-15T21:46:09.824Z,9.61
2022-10-15T21:48:38.890Z,9.72
2022-10-15T21:51:11.011Z,9.72
2022-10-15T21:53:40.877Z,9.69
2022-10-15T21:56:09.322Z,9.68
2022-10-15T21:58:38.726Z,9.71
2022-10-15T22:01:13.479Z,9.59
2022-10-15T22:03:44.325Z,9.25
2022-10-15T22:06:13.285Z,9.38
2022-10-15T22:08:43.756Z,9.31
2022-10-15T22:11:14.594Z,9.51
2022-10-15T22:13:43.736Z,9.66
2022-10-15T22:16:12.683Z,9.71
2022-10-15T22:18:41.231Z,9.75
2022-10-15T22:21:15.299Z,9.75
2022-10-15T22:23:46.507Z,9.65
2022-10-15T22:26:15.663Z,9.50
2022-10-15T22:28:45.038Z,9.64
2022-10-15T22:31:16.752Z,9.63
2022-10-15T22:33:45.859Z,9.63
2022-10-15T22:36:17.158Z,9.75
2022-10-15T22:38:49.141Z,9.79
2022-10-15T22:41:17.670Z,9.81
2022-10-15T22:43:46.165Z,9.81
2022-10-15T22:46:14.529Z,9.72
2022-10-15T22:48:43.716Z,9.64
2022-10-15T22:51:14.681Z,9.51
2022-10-15T22:53:43.191Z,9.60
2022-10-15T22:56:16.458Z,9.61
2022-10-15T22:58:45.663Z,9.56
2022-10-15T23:01:16.034Z,9.51
2022-10-15T23:03:46.944Z,9.42
2022-10-15T23:06:15.537Z,9.33
2022-10-15T23:08:45.398Z,9.28
2022-10-15T23:11:17.118Z,9.22
2022-10-15T23:13:46.414Z,9.05
2022-10-15T23:16:16.863Z,9.01
2022-10-15T23:18:46.952Z,8.92
2022-10-15T23:21:17.706Z,8.95
2022-10-15T23:23:47.031Z,8.89
2022-10-15T23:26:17.558Z,8.87
2022-10-15T23:28:46.401Z,8.77
2022-10-15T23:31:18.285Z,8.71
2022-10-15T23:33:46.261Z,8.60
2022-10-15T23:36:14.674Z,8.38
2022-10-15T23:38:42.808Z,8.48
2022-10-15T23:41:11.552Z,8.40
2022-10-15T23:43:40.873Z,8.35
2022-10-15T23:46:09.114Z,8.29
2022-10-15T23:48:37.789Z,8.21
2022-10-15T23:51:13.538Z,8.20
2022-10-15T23:53:42.114Z,8.12
2022-10-15T23:56:10.053Z,8.09
2022-10-15T23:58:38.910Z,8.02
